Friday, November 24, 2017, 12:31 AM EST
Back to Local

KGTB, Fort Drum / Wheeler-sack U. S. Army Airfield

Location: Fort Drum, NY, United States Lat: 44.05
Local Time: 12:31 AM EST ( 5:31 GMT) Lon: -75.733
Time Zone: US/Eastern Elev: 679 ft

Show me the last for .
Show Coded

Time T Td Feel RH Dir Speed Gust Alt SLP Vis Weather Sky Remarks
2017-11-24 00:06 36 28 29 74 230° 9 - 29.89 29.91 10 FEW020 BKN028 OVC037 None
2017-11-23 23:56 35 29 29 78 250° 8 - 29.89 29.91 10 SCT020 BKN034 OVC042 24-hr Min Temp (12am): 21.2°F
24-hr Max Temp (12am): 35.1°F
2017-11-23 22:56 34 29 27 79 220° 9 - 29.88 29.90 10 OVC020 1-hr Precip Total: Trace
2017-11-23 22:42 34 28 26 80 220° 9 - 29.88 29.90 10 OVC020 None
2017-11-23 22:21 34 28 25 80 210° 12 - 29.88 29.90 10 -DZ OVC021 None
2017-11-23 22:11 34 30 25 86 210° 13 - 29.88 29.90 10 OVC021 None
2017-11-23 21:56 33 29 24 85 210° 12 - 29.89 29.91 8 -DZ OVC021 1-hr Precip Total: Trace
6-hr Precip Total (10pm): 0.00"
2017-11-23 21:43 34 28 22 80 210° 15 20 29.89 29.91 9 -DZ OVC021 None
2017-11-23 21:25 34 28 24 80 210° 16 - 29.89 29.91 9 OVC023 None
2017-11-23 21:16 34 30 25 86 210° 12 - 29.89 29.91 7 -DZ OVC021 None
2017-11-23 21:04 34 28 22 80 210° 14 21 29.90 29.93 7 -RA OVC021 None
2017-11-23 20:56 33 28 21 82 210° 14 21 29.90 29.93 9 -DZ OVC020 1-hr Precip Total: Trace
2017-11-23 20:45 34 28 25 80 210° 13 - 29.90 29.93 10 -UP OVC021 None
2017-11-23 19:56 33 26 24 74 210° 14 - 29.90 29.93 10 OVC024 None
2017-11-23 19:06 32 25 23 74 210° 13 - 29.91 29.94 10 OVC028 None
2017-11-23 18:56 33 25 24 72 210° 12 - 29.91 29.94 10 OVC030 6-hr Precip Total (7pm): 0.00"
6-hr Min Temp (7pm): 30.0°F
6-hr Max Temp (7pm): 32.5°F
2017-11-23 18:46 32 25 23 74 210° 13 - 29.91 29.94 10 OVC030 None
2017-11-23 17:56 32 24 23 71 210° 12 - 29.91 29.94 10 BKN029 OVC036 None
2017-11-23 16:56 32 24 23 72 220° 12 - 29.91 29.94 10 FEW038 OVC100 None
2017-11-23 15:56 32 24 23 70 210° 12 - 29.92 29.95 10 FEW030 SCT039 OVC100 6-hr Precip Total (4pm): 0.00"
2017-11-23 15:46 32 25 23 74 210° 12 - 29.92 29.95 10 SCT028 BKN037 OVC100 None
2017-11-23 15:36 32 25 22 74 210° 14 - 29.92 29.95 10 BKN029 BKN036 BKN044 OVC100 None
2017-11-23 14:56 31 24 22 73 190° 12 - 29.93 29.96 10 BKN022 OVC028 1-hr Precip Total: Trace
2017-11-23 14:35 32 25 25 74 200° 8 - 29.94 29.97 10 OVC021 None
2017-11-23 14:30 32 25 21 74 210° 8 17 29.94 29.97 10 -UP OVC021 None
2017-11-23 13:56 31 24 22 74 190° 10 - 29.95 29.98 10 OVC022 1-hr Precip Total: Trace
2017-11-23 13:14 30 23 20 74 180° 13 - 29.97 30.00 10 OVC020 None
2017-11-23 13:04 30 23 21 74 180° 12 - 29.98 30.01 10 -UP OVC020 None
2017-11-23 12:56 30 23 21 75 170° 10 - 29.98 30.01 10 OVC021 Snow depth: 0"
6-hr Min Temp (1pm): 21.7°F
6-hr Max Temp (1pm): 30.2°F
2017-11-23 11:56 30 23 22 74 190° 8 - 30.01 30.04 10 OVC025 None
2017-11-23 11:46 30 23 23 74 180° 7 - 30.01 30.04 10 OVC028 None
2017-11-23 10:56 28 21 21 72 180° 7 - 30.04 30.07 10 OVC030 None
2017-11-23 09:56 27 20 21 76 200° 5 - 30.07 30.10 10 OVC033 None
2017-11-23 08:56 25 19 19 77 180° 5 - 30.09 30.12 10 FEW120 None
2017-11-23 07:56 23 17 18 78 180° 3 - 30.09 30.12 10 SCT120 None
2017-11-23 06:56 22 15 - 75 - Calm - 30.09 30.12 10 OVC140 24-hr Precip Total (7am): 0.03"
6-hr Min Temp (7am): 21.2°F
6-hr Max Temp (7am): 22.1°F
2017-11-23 05:56 21 14 16 72 150° 3 - 30.11 30.14 10 SCT022 BKN150 None
2017-11-23 04:56 21 13 17 70 110° 3 - 30.12 30.15 10 OVC025 None
2017-11-23 03:56 21 13 - 69 - Calm - 30.12 30.15 10 OVC025 None
2017-11-23 02:56 21 12 14 67 50° 6 - 30.11 30.14 10 OVC025 None
2017-11-23 01:56 22 13 17 68 50° 3 - 30.12 30.15 10 OVC026 None
2017-11-23 01:06 23 14 15 67 10° 7 - 30.12 30.15 10 SCT017 OVC027 None
2017-11-23 00:56 22 14 16 71 20° 5 - 30.12 30.15 10 BKN016 OVC027 1-hr Precip Total: Trace
6-hr Precip Total (1am): 0.00"
6-hr Min Temp (1am): 22.1°F
6-hr Max Temp (1am): 28.0°F

Support USWX by starting your Amazon purchase here.